createdAt,value
2022-10-01T00:20:50.455Z,8.75
2022-10-01T00:25:54.630Z,7.63
2022-10-01T00:30:57.458Z,10.70
2022-10-01T00:36:00.279Z,5.20
2022-10-01T00:41:06.121Z,22.33
2022-10-01T00:46:14.037Z,7.55
2022-10-01T00:51:17.295Z,3.20
2022-10-01T00:56:21.461Z,6.28
2022-10-01T01:01:24.730Z,12.68
2022-10-01T01:06:27.581Z,5.65
2022-10-01T01:11:43.999Z,4.18
2022-10-01T01:16:51.510Z,6.00
2022-10-01T01:21:59.087Z,7.10
2022-10-01T01:27:16.175Z,4.47
2022-10-01T01:32:25.849Z,3.63
2022-10-01T01:37:32.141Z,6.47
2022-10-01T01:42:37.953Z,5.05
2022-10-01T01:47:43.598Z,4.78
2022-10-01T01:52:46.318Z,5.30
2022-10-01T01:57:49.283Z,4.20
2022-10-01T02:02:56.490Z,6.47
2022-10-01T02:08:22.901Z,5.05
2022-10-01T02:13:38.962Z,8.40
2022-10-01T02:18:50.548Z,4.45
2022-10-01T02:23:59.136Z,4.43
2022-10-01T02:29:08.065Z,5.78
2022-10-01T02:34:19.961Z,5.10
2022-10-01T02:39:26.024Z,5.85
2022-10-01T02:44:37.901Z,12.40
2022-10-01T02:49:42.547Z,5.80
2022-10-01T02:54:51.327Z,8.77
2022-10-01T02:59:57.570Z,8.82
2022-10-01T03:05:02.179Z,12.10
2022-10-01T03:10:05.247Z,6.00
2022-10-01T03:15:08.868Z,23.48
2022-10-01T03:20:14.086Z,10.07
2022-10-01T03:25:17.387Z,5.10
2022-10-01T03:30:20.092Z,8.73
2022-10-01T03:35:24.878Z,7.20
2022-10-01T03:40:33.348Z,7.68
2022-10-01T03:45:36.070Z,9.27
2022-10-01T03:50:40.238Z,4.47
2022-10-01T03:55:43.577Z,6.95
2022-10-01T04:00:50.245Z,5.38
2022-10-01T04:05:54.370Z,6.43
2022-10-01T04:10:57.142Z,5.63
2022-10-01T04:15:59.901Z,12.10
2022-10-01T04:21:05.099Z,7.45
2022-10-01T04:26:08.171Z,7.05
2022-10-01T04:31:26.256Z,6.63
2022-10-01T04:36:31.018Z,6.30
2022-10-01T04:41:34.975Z,9.50
2022-10-01T04:46:37.919Z,6.63
2022-10-01T04:51:42.190Z,11.25
2022-10-01T04:56:44.917Z,7.60
2022-10-01T05:01:47.871Z,8.00
2022-10-01T05:06:52.117Z,9.68
2022-10-01T05:11:54.985Z,13.43
2022-10-01T05:16:57.831Z,7.70
2022-10-01T05:22:02.187Z,6.32
2022-10-01T05:27:05.088Z,7.45
2022-10-01T05:32:08.048Z,3.90
2022-10-01T05:37:12.377Z,3.85
2022-10-01T05:42:15.248Z,5.38
2022-10-01T05:47:20.569Z,8.68
2022-10-01T05:52:26.654Z,4.53
2022-10-01T05:57:30.063Z,15.00
2022-10-01T06:02:33.520Z,7.97
2022-10-01T06:07:37.872Z,9.02
2022-10-01T06:12:40.767Z,7.53
2022-10-01T06:17:45.100Z,13.93
2022-10-01T06:22:56.429Z,13.02
2022-10-01T06:28:00.599Z,8.68
2022-10-01T06:33:06.137Z,11.05
2022-10-01T06:38:11.084Z,7.53
2022-10-01T06:43:13.951Z,12.65
2022-10-01T06:48:19.609Z,4.47
2022-10-01T06:53:24.142Z,13.00
2022-10-01T06:58:27.707Z,11.63
2022-10-01T07:03:31.039Z,8.93
2022-10-01T07:08:35.263Z,6.10
2022-10-01T07:13:38.388Z,4.80
2022-10-01T07:18:41.084Z,4.85
2022-10-01T07:23:45.484Z,40.00
2022-10-01T07:28:48.258Z,5.22
2022-10-01T07:33:57.211Z,3.22
2022-10-01T07:39:02.145Z,7.50
2022-10-01T07:44:04.907Z,3.38
2022-10-01T07:49:07.767Z,3.83
2022-10-01T07:54:12.877Z,2.47
2022-10-01T07:59:16.766Z,2.20
2022-10-01T08:04:37.384Z,1.25
2022-10-01T08:09:42.104Z,7.18
2022-10-01T08:14:45.819Z,0.73
2022-10-01T08:19:48.702Z,0.70
2022-10-01T08:24:52.774Z,0.68
2022-10-01T08:29:55.609Z,1.73
2022-10-01T08:35:00.016Z,0.60
2022-10-01T08:40:06.010Z,0.57
2022-10-01T08:45:15.247Z,0.45
2022-10-01T08:50:29.794Z,0.88
2022-10-01T08:55:37.425Z,7.45
2022-10-01T09:00:45.957Z,0.60
2022-10-01T09:06:10.117Z,0.90
2022-10-01T09:11:33.008Z,0.55
2022-10-01T09:16:42.782Z,1.25
2022-10-01T09:21:55.793Z,1.30
2022-10-01T09:27:00.792Z,0.63
2022-10-01T09:32:06.331Z,0.45
2022-10-01T09:37:21.215Z,0.50
2022-10-01T09:42:29.030Z,4.25
2022-10-01T09:47:34.421Z,1.58
2022-10-01T09:52:40.201Z,0.25
2022-10-01T09:57:51.566Z,1.90
2022-10-01T10:02:56.287Z,0.80
2022-10-01T10:08:04.474Z,6.22
2022-10-01T10:13:21.435Z,2.00
2022-10-01T10:18:31.071Z,4.22
2022-10-01T10:23:34.318Z,2.03
2022-10-01T10:28:44.587Z,1.20
2022-10-01T10:33:53.310Z,0.75
2022-10-01T10:38:57.933Z,2.65
2022-10-01T10:44:06.166Z,2.60
2022-10-01T10:49:17.058Z,3.70
2022-10-01T10:54:23.107Z,4.93
2022-10-01T10:59:27.322Z,0.93
2022-10-01T11:04:41.029Z,2.30
2022-10-01T11:10:04.433Z,4.10
2022-10-01T11:15:24.031Z,2.88
2022-10-01T11:20:39.603Z,1.50
2022-10-01T11:25:52.729Z,1.80
2022-10-01T11:31:03.298Z,1.85
2022-10-01T11:36:15.244Z,3.72
2022-10-01T11:41:28.393Z,3.42
2022-10-01T11:46:42.459Z,3.35
2022-10-01T11:51:51.229Z,3.33
2022-10-01T11:57:16.063Z,1.92
2022-10-01T12:02:28.207Z,2.40
2022-10-01T12:07:38.510Z,5.18
2022-10-01T12:12:48.074Z,3.08
2022-10-01T12:17:56.456Z,5.35
2022-10-01T12:23:02.344Z,5.50
2022-10-01T12:28:10.763Z,8.45
2022-10-01T12:33:40.897Z,7.13
2022-10-01T12:38:55.458Z,4.72
2022-10-01T12:44:25.016Z,10.70
2022-10-01T12:49:35.131Z,9.23
2022-10-01T12:54:58.013Z,3.15
2022-10-01T13:00:09.977Z,5.65
2022-10-01T13:05:28.778Z,4.57
2022-10-01T13:10:48.718Z,5.80
2022-10-01T13:15:59.678Z,3.78
2022-10-01T13:21:12.339Z,8.90
2022-10-01T13:26:21.052Z,4.15
2022-10-01T13:31:35.097Z,5.20
2022-10-01T13:36:41.083Z,5.43
2022-10-01T13:41:44.338Z,12.23
2022-10-01T13:46:53.081Z,8.02
2022-10-01T13:51:58.159Z,7.40
2022-10-01T13:57:08.903Z,12.27
2022-10-01T14:02:29.894Z,8.35
2022-10-01T14:07:39.919Z,6.45
2022-10-01T14:13:03.436Z,5.97
2022-10-01T14:18:11.287Z,8.77
2022-10-01T14:23:20.857Z,4.70
2022-10-01T14:28:49.908Z,8.55
2022-10-01T14:34:10.638Z,12.00
2022-10-01T14:39:17.742Z,8.68
2022-10-01T14:49:27.390Z,14.95
2022-10-01T14:54:39.287Z,9.40
2022-10-01T14:59:42.475Z,15.70
2022-10-01T15:04:48.981Z,8.38
2022-10-01T15:09:53.160Z,14.87
2022-10-01T15:14:56.825Z,9.48
2022-10-01T15:19:59.935Z,14.00
2022-10-01T15:25:04.258Z,10.88
2022-10-01T15:30:14.894Z,19.23
2022-10-01T15:35:22.011Z,13.23
2022-10-01T15:45:31.583Z,14.40
2022-10-01T15:50:37.551Z,14.98
2022-10-01T15:55:44.697Z,13.15
2022-10-01T16:06:03.295Z,17.27
2022-10-01T16:11:18.685Z,20.15
2022-10-01T16:16:25.138Z,17.38
2022-10-01T16:21:28.189Z,14.90
2022-10-01T16:26:52.227Z,21.20
2022-10-01T16:31:56.923Z,25.15
2022-10-01T16:37:00.031Z,34.45
2022-10-01T16:42:23.196Z,23.75
2022-10-01T16:47:26.706Z,34.67
2022-10-01T16:52:29.497Z,24.67
2022-10-01T16:57:34.220Z,12.85
2022-10-01T17:02:36.909Z,16.60
2022-10-01T17:07:39.703Z,23.70
2022-10-01T17:12:44.521Z,14.63
2022-10-01T17:17:47.755Z,33.55
2022-10-01T17:22:51.646Z,25.52
2022-10-01T17:27:56.736Z,12.80
2022-10-01T17:33:02.121Z,55.13
2022-10-01T17:38:04.888Z,31.45
2022-10-01T17:43:11.638Z,44.78
2022-10-01T17:48:16.213Z,26.55
2022-10-01T17:58:26.715Z,16.88
2022-10-01T18:03:29.918Z,44.38
2022-10-01T18:14:00.996Z,54.67
2022-10-01T18:24:27.326Z,14.20
2022-10-01T18:29:31.618Z,6.40
2022-10-01T18:34:40.717Z,22.75
2022-10-01T18:39:46.357Z,10.88
2022-10-01T18:44:53.719Z,14.05
2022-10-01T18:55:30.352Z,18.65
2022-10-01T19:00:41.673Z,17.90
2022-10-01T19:06:04.759Z,11.75
2022-10-01T19:11:18.167Z,13.48
2022-10-01T19:16:38.147Z,8.95
2022-10-01T19:21:49.326Z,16.15
2022-10-01T19:26:58.887Z,17.10
2022-10-01T19:32:08.423Z,18.60
2022-10-01T19:37:17.079Z,18.25
2022-10-01T19:42:24.276Z,16.35
2022-10-01T19:47:37.340Z,12.13
2022-10-01T19:52:42.668Z,13.57
2022-10-01T19:57:46.334Z,14.50
2022-10-01T20:03:02.159Z,15.13
2022-10-01T20:08:14.517Z,14.43
2022-10-01T20:13:28.208Z,19.42
2022-10-01T20:18:40.967Z,15.48
2022-10-01T20:23:50.191Z,18.75
2022-10-01T20:29:09.285Z,10.73
2022-10-01T20:34:21.623Z,28.33
2022-10-01T20:39:29.172Z,15.45
2022-10-01T20:44:36.386Z,12.90
2022-10-01T20:49:46.324Z,41.03
2022-10-01T20:54:52.854Z,75.53
2022-10-01T20:59:59.356Z,47.40
2022-10-01T21:05:08.971Z,23.58
2022-10-01T21:10:26.200Z,36.13
2022-10-01T21:20:49.048Z,22.67
2022-10-01T21:26:05.841Z,34.63
2022-10-01T21:31:21.550Z,28.85
2022-10-01T21:36:32.142Z,16.90
2022-10-01T21:41:52.059Z,19.60
2022-10-01T21:47:00.947Z,17.17
2022-10-01T21:52:17.712Z,21.67
2022-10-01T21:57:36.813Z,33.77
2022-10-01T22:02:47.496Z,21.35
2022-10-01T22:08:02.186Z,27.02
2022-10-01T22:13:12.331Z,18.67
2022-10-01T22:18:20.247Z,31.60
2022-10-01T22:23:26.489Z,14.57
2022-10-01T22:28:36.095Z,24.23
2022-10-01T22:33:44.963Z,13.20
2022-10-01T22:38:54.048Z,7.95
2022-10-01T22:43:57.039Z,23.10
2022-10-01T22:49:04.733Z,24.92
2022-10-01T22:54:31.139Z,18.90
2022-10-01T22:59:43.513Z,15.07
2022-10-01T23:04:58.735Z,16.63
2022-10-01T23:10:10.382Z,14.68
2022-10-01T23:15:26.799Z,15.35
2022-10-01T23:20:33.005Z,20.90
2022-10-01T23:25:49.818Z,15.18
2022-10-01T23:31:03.602Z,16.35
2022-10-01T23:36:17.293Z,17.55
2022-10-01T23:41:26.372Z,18.20
2022-10-01T23:46:32.465Z,19.35
2022-10-01T23:51:39.205Z,17.40
2022-10-01T23:56:50.812Z,22.33
